Terminal Aerodrome Forecast
Issued by NWS

Home | Current Version | Previous Version | Graphics & Text | Print | Product List | Glossary On
Versions: 1 2 3 4 5 6 7 8 9 10 11 12 13 14 15 16 17 18 19 20 21 22 23 24 25 26 27 28 29 30 31
000
FTUS43 KABR 222306 AAB
TAFATY
TAF AMD
KATY 222306Z 2223/2318 25012KT P6SM SKC
     FM230200 24006KT P6SM BKN050
     FM230900 35007KT P6SM VCTS OVC015CB
     FM231300 02007KT P6SM -RA OVC003=

USA.gov is the U.S. government's official web portal to all federal, state and local government web resources and services.